Time;durP1;ratioP1;P1;durP2;ratioP2;P2;SDS_P1;SDS_P2;PMS_P1;PMS_P2;Temp;Humidity;BMP_temperature;BMP_pressure;BME280_temperature;BME280_humidity;BME280_pressure;Samples;Min_cycle;Max_cycle;Signal;HPM_P1;HPM_P2
2023/06/09 00:01:45;;;;;;;8.77;7.03;;;17.70;99.90;;;;;;12423684;28;20500;-39
2023/06/09 00:07:48;;;;;;;8.43;6.50;;;17.70;99.90;;;;;;12425558;28;20049;-38
2023/06/09 00:13:50;;;;;;;10.45;6.82;;;17.60;99.90;;;;;;12419921;28;20069;-38
2023/06/09 00:19:54;;;;;;;9.23;6.95;;;17.70;99.90;;;;;;12414559;28;20571;-38
2023/06/09 00:25:56;;;;;;;9.38;7.22;;;17.70;99.90;;;;;;12427882;28;20046;-40
2023/06/09 00:31:58;;;;;;;11.15;7.47;;;17.70;99.90;;;;;;12426413;28;20414;-38
2023/06/09 00:38:00;;;;;;;8.85;6.35;;;17.70;99.90;;;;;;12428678;28;20115;-39
2023/06/09 00:44:02;;;;;;;12.32;6.97;;;17.70;99.90;;;;;;12423825;28;20527;-39
2023/06/09 00:50:04;;;;;;;9.30;6.65;;;17.60;99.90;;;;;;12425913;28;20050;-39
2023/06/09 00:56:07;;;;;;;11.35;7.22;;;17.10;99.90;;;;;;12422294;28;20073;-38
2023/06/09 01:02:12;;;;;;;12.02;7.05;;;17.00;99.90;;;;;;12425394;28;20050;-38
2023/06/09 01:08:49;;;;;;;13.02;6.63;;;16.90;99.90;;;;;;12431480;28;20046;-38
2023/06/09 01:15:04;;;;;;;11.25;6.45;;;16.90;99.90;;;;;;12427632;28;20057;-39
2023/06/09 01:21:20;;;;;;;9.52;7.00;;;16.80;99.90;;;;;;12420612;28;20038;-39
2023/06/09 01:27:24;;;;;;;12.65;6.68;;;16.80;99.90;;;;;;12423166;28;20049;-39
2023/06/09 01:33:27;;;;;;;13.38;7.10;;;16.80;99.90;;;;;;12421716;28;20057;-39
2023/06/09 01:39:29;;;;;;;12.95;7.22;;;16.80;99.90;;;;;;12424223;28;20053;-40
2023/06/09 01:45:32;;;;;;;12.05;7.00;;;16.60;99.90;;;;;;12429752;28;20084;-37
2023/06/09 01:51:41;;;;;;;14.20;6.97;;;16.50;99.90;;;;;;12428413;28;20053;-39
2023/06/09 01:57:50;;;;;;;9.73;7.07;;;16.50;99.90;;;;;;12428313;28;20619;-41
2023/06/09 02:03:54;;;;;;;15.15;7.10;;;16.40;99.90;;;;;;12432665;28;20097;-39
2023/06/09 02:09:56;;;;;;;12.10;6.85;;;16.50;99.90;;;;;;12436583;28;20053;-39
2023/06/09 02:15:58;;;;;;;9.50;5.78;;;16.40;99.90;;;;;;12417631;28;20047;-39
2023/06/09 02:22:01;;;;;;;12.43;6.60;;;16.80;99.90;;;;;;12434558;28;20273;-40
2023/06/09 02:28:04;;;;;;;10.75;6.78;;;17.00;99.90;;;;;;12424380;28;20061;-39
2023/06/09 02:34:06;;;;;;;10.50;6.63;;;16.80;99.90;;;;;;12395885;28;20050;-38
2023/06/09 02:40:10;;;;;;;13.75;7.03;;;16.60;99.90;;;;;;12384037;28;20042;-38
2023/06/09 02:46:13;;;;;;;11.32;6.80;;;16.40;99.90;;;;;;12382271;28;20073;-39
2023/06/09 02:52:15;;;;;;;13.17;6.57;;;16.30;99.90;;;;;;12379334;28;20050;-39
2023/06/09 02:58:17;;;;;;;15.05;7.03;;;16.30;99.90;;;;;;12373152;28;20483;-39
2023/06/09 03:04:20;;;;;;;12.02;6.93;;;16.60;99.90;;;;;;12377208;28;20495;-38
2023/06/09 03:10:22;;;;;;;14.20;6.60;;;16.70;99.90;;;;;;12382144;28;20133;-38
2023/06/09 03:16:25;;;;;;;10.07;6.20;;;16.40;99.90;;;;;;12379849;28;20149;-39
2023/06/09 03:22:27;;;;;;;9.73;7.20;;;16.20;99.90;;;;;;12382741;28;20038;-38
2023/06/09 03:28:29;;;;;;;12.52;7.28;;;16.00;99.90;;;;;;12377635;28;20050;-39
2023/06/09 03:34:31;;;;;;;11.35;7.40;;;16.10;99.90;;;;;;12372435;28;20054;-39
2023/06/09 03:40:36;;;;;;;11.88;7.28;;;16.10;99.90;;;;;;12378526;28;20058;-39
2023/06/09 03:46:38;;;;;;;11.68;6.57;;;16.10;99.90;;;;;;12382705;28;20050;-40
2023/06/09 03:52:40;;;;;;;11.90;6.22;;;16.00;99.90;;;;;;12379070;28;20050;-39
2023/06/09 03:58:42;;;;;;;9.77;7.10;;;16.30;99.90;;;;;;12333916;28;20051;-38
2023/06/09 04:04:44;;;;;;;10.90;6.05;;;16.10;99.90;;;;;;12352801;28;20074;-38
2023/06/09 04:10:46;;;;;;;11.13;7.13;;;16.10;99.90;;;;;;12356828;28;20050;-38
2023/06/09 04:16:48;;;;;;;12.27;7.05;;;15.90;99.90;;;;;;12362306;28;20054;-38
2023/06/09 04:22:51;;;;;;;10.95;6.90;;;15.90;99.90;;;;;;12375541;28;20053;-40
2023/06/09 04:28:53;;;;;;;11.98;7.57;;;16.20;99.90;;;;;;12372284;28;20060;-38
2023/06/09 04:34:56;;;;;;;10.68;8.02;;;15.90;99.90;;;;;;12346908;28;20079;-39
2023/06/09 04:41:02;;;;;;;10.17;7.33;;;15.90;99.90;;;;;;12351952;28;20039;-38
2023/06/09 04:47:05;;;;;;;10.45;6.78;;;16.10;99.90;;;;;;12358220;28;20053;-39
2023/06/09 04:53:07;;;;;;;7.93;6.28;;;16.10;99.90;;;;;;12346157;28;20052;-39
2023/06/09 04:59:12;;;;;;;11.85;6.97;;;16.40;99.90;;;;;;12344845;28;20134;-38
2023/06/09 05:05:15;;;;;;;9.43;6.53;;;16.70;99.90;;;;;;12362200;28;20039;-39
2023/06/09 05:11:18;;;;;;;11.80;6.90;;;16.70;99.90;;;;;;12361428;28;20613;-39
2023/06/09 05:17:20;;;;;;;15.23;7.68;;;16.70;99.90;;;;;;12374574;28;20051;-39
2023/06/09 05:23:22;;;;;;;8.82;7.35;;;16.40;99.90;;;;;;12367834;28;20053;-39
2023/06/09 05:29:25;;;;;;;9.30;7.43;;;16.30;99.90;;;;;;12381903;28;20427;-40
2023/06/09 05:35:27;;;;;;;9.40;7.28;;;16.50;99.90;;;;;;12373623;28;20046;-38
2023/06/09 05:41:29;;;;;;;9.70;7.65;;;16.70;99.90;;;;;;12367464;28;20684;-38
2023/06/09 05:47:31;;;;;;;9.45;6.80;;;16.80;99.90;;;;;;12370943;28;20058;-38
2023/06/09 05:53:34;;;;;;;11.20;7.30;;;16.90;99.90;;;;;;12375382;28;20039;-39
2023/06/09 05:59:36;;;;;;;11.25;6.97;;;17.10;99.90;;;;;;12383327;28;20046;-39
2023/06/09 06:05:38;;;;;;;10.45;7.18;;;17.20;99.90;;;;;;12369633;28;20038;-40
2023/06/09 06:11:41;;;;;;;11.38;7.03;;;17.40;99.90;;;;;;12386975;28;20108;-39
2023/06/09 06:17:42;;;;;;;10.75;7.15;;;17.50;99.90;;;;;;12378857;28;20054;-39
2023/06/09 06:23:45;;;;;;;10.75;6.65;;;17.90;99.90;;;;;;12384551;28;20100;-39
2023/06/09 06:29:46;;;;;;;8.80;6.72;;;17.90;99.90;;;;;;12381813;28;20051;-39
2023/06/09 06:35:49;;;;;;;8.95;6.55;;;17.90;99.90;;;;;;12359971;28;20121;-40
2023/06/09 06:41:51;;;;;;;10.63;6.40;;;17.80;99.90;;;;;;12372013;28;20531;-40
2023/06/09 06:47:54;;;;;;;8.65;7.10;;;18.00;99.90;;;;;;12370526;28;20346;-40
2023/06/09 06:53:56;;;;;;;11.17;7.03;;;18.30;99.90;;;;;;12377479;28;20051;-39
2023/06/09 06:59:58;;;;;;;13.90;7.47;;;18.20;99.90;;;;;;12365455;28;20077;-38
2023/06/09 07:06:07;;;;;;;9.43;6.70;;;18.30;99.90;;;;;;12370897;28;20046;-38
2023/06/09 07:12:09;;;;;;;11.68;7.10;;;18.20;99.90;;;;;;12359291;28;21591;-40
2023/06/09 07:18:11;;;;;;;11.38;8.30;;;18.20;99.90;;;;;;12362398;28;20058;-38
2023/06/09 07:24:13;;;;;;;10.27;7.80;;;18.20;99.90;;;;;;12365654;28;20104;-39
2023/06/09 07:30:16;;;;;;;12.88;8.02;;;18.40;99.90;;;;;;12370211;28;20514;-38
2023/06/09 07:36:19;;;;;;;9.45;7.38;;;18.50;99.90;;;;;;12371503;28;20049;-39
2023/06/09 07:42:21;;;;;;;18.37;8.00;;;19.10;99.90;;;;;;12377094;28;20054;-38
2023/06/09 07:48:23;;;;;;;11.27;6.55;;;19.60;99.90;;;;;;12377889;28;20054;-38
2023/06/09 07:54:25;;;;;;;9.52;6.85;;;19.80;99.90;;;;;;12365310;28;20050;-38
2023/06/09 08:00:27;;;;;;;14.05;7.10;;;20.20;99.90;;;;;;12358740;28;20402;-39
2023/06/09 08:06:30;;;;;;;10.32;6.53;;;20.40;99.90;;;;;;12352844;28;20085;-39
2023/06/09 08:12:32;;;;;;;8.77;6.15;;;20.70;99.90;;;;;;12351585;28;20046;-39
2023/06/09 08:18:34;;;;;;;8.93;5.82;;;20.70;99.90;;;;;;12355089;28;20059;-39
2023/06/09 08:24:36;;;;;;;9.40;5.88;;;20.90;99.90;;;;;;12363491;28;20049;-38
2023/06/09 08:30:38;;;;;;;8.82;6.22;;;21.00;99.90;;;;;;12364380;28;20101;-39
2023/06/09 08:36:41;;;;;;;9.98;5.57;;;21.10;99.90;;;;;;12366875;28;20050;-38
2023/06/09 08:42:48;;;;;;;14.25;6.53;;;21.40;99.90;;;;;;12363753;28;20047;-39
2023/06/09 08:48:56;;;;;;;12.15;6.90;;;21.60;99.90;;;;;;12371320;28;20398;-39
2023/06/09 08:54:59;;;;;;;10.23;6.03;;;21.70;99.90;;;;;;12382255;28;20046;-40
2023/06/09 09:01:03;;;;;;;11.02;6.78;;;21.80;99.90;;;;;;12372424;28;20086;-39
2023/06/09 09:07:06;;;;;;;13.40;5.82;;;21.90;99.90;;;;;;12369227;28;20058;-39
2023/06/09 09:13:10;;;;;;;12.73;6.75;;;22.30;99.90;;;;;;12364812;28;20039;-39
2023/06/09 09:19:12;;;;;;;14.35;7.20;;;22.50;99.90;;;;;;12373547;28;20054;-39
2023/06/09 09:25:22;;;;;;;10.93;5.97;;;22.60;99.90;;;;;;12370195;28;20043;-39
2023/06/09 09:31:32;;;;;;;7.95;5.35;;;23.00;99.90;;;;;;12363690;28;20055;-38
2023/06/09 09:37:34;;;;;;;10.57;5.50;;;23.20;99.90;;;;;;12369394;28;20136;-39
2023/06/09 09:43:36;;;;;;;10.13;6.25;;;23.50;99.90;;;;;;12367422;28;20042;-39
2023/06/09 09:49:54;;;;;;;11.00;6.70;;;23.80;99.90;;;;;;12365084;28;20038;-40
2023/06/09 09:56:00;;;;;;;6.85;4.50;;;23.90;99.90;;;;;;12360496;28;20419;-39
2023/06/09 10:02:03;;;;;;;6.45;4.60;;;24.30;99.90;;;;;;12373690;28;20054;-40
2023/06/09 10:08:06;;;;;;;10.98;5.72;;;24.40;99.90;;;;;;12372430;28;20057;-39
2023/06/09 10:14:09;;;;;;;10.63;5.28;;;24.40;99.90;;;;;;12367778;28;20042;-39
2023/06/09 10:20:12;;;;;;;9.73;4.80;;;24.60;99.90;;;;;;12377845;28;20050;-40
2023/06/09 10:26:15;;;;;;;10.43;5.00;;;24.70;99.90;;;;;;12381723;28;20073;-38
2023/06/09 10:32:20;;;;;;;;;;;25.00;99.90;;;;;;12375666;28;20046;-39
2023/06/09 10:38:28;;;;;;;13.57;6.30;;;24.90;99.90;;;;;;12374553;28;19926;-39
2023/06/09 10:45:07;;;;;;;16.35;5.82;;;24.80;99.90;;;;;;12346678;28;20141;-40
2023/06/09 10:51:27;;;;;;;6.47;4.38;;;25.20;99.90;;;;;;12369324;28;20053;-39
2023/06/09 10:57:35;;;;;;;5.72;4.10;;;25.30;99.90;;;;;;12365302;28;20453;-38
2023/06/09 11:03:38;;;;;;;8.07;4.22;;;25.80;99.90;;;;;;12373173;28;20043;-39
2023/06/09 11:10:00;;;;;;;6.53;4.20;;;25.80;99.90;;;;;;12370503;28;20043;-38
2023/06/09 11:16:03;;;;;;;5.93;4.10;;;25.30;99.90;;;;;;12419355;28;20053;-39
2023/06/09 11:22:06;;;;;;;6.78;4.38;;;25.30;99.90;;;;;;12425215;28;20046;-39
2023/06/09 11:28:08;;;;;;;6.35;3.85;;;25.70;99.90;;;;;;12420836;28;20054;-39
2023/06/09 11:34:49;;;;;;;8.70;4.25;;;25.50;99.90;;;;;;12414276;28;20541;-40
2023/06/09 11:40:52;;;;;;;7.13;4.50;;;25.50;99.90;;;;;;12421367;28;20115;-39
2023/06/09 11:46:54;;;;;;;;;;;26.10;99.90;;;;;;12402512;28;20124;-40
2023/06/09 11:53:04;;;;;;;6.28;4.20;;;25.70;99.90;;;;;;12422187;28;20298;-39
2023/06/09 11:59:07;;;;;;;10.63;4.57;;;25.70;99.90;;;;;;12414373;28;20085;-40
2023/06/09 12:05:12;;;;;;;7.17;3.70;;;26.00;99.90;;;;;;12416646;28;20486;-40
2023/06/09 12:11:16;;;;;;;7.68;3.95;;;25.80;99.90;;;;;;12409939;28;20316;-40
2023/06/09 12:17:18;;;;;;;8.27;4.10;;;26.00;99.90;;;;;;12419595;28;20050;-41
2023/06/09 12:23:27;;;;;;;7.40;4.57;;;26.30;99.90;;;;;;12420714;28;20042;-41
2023/06/09 12:29:29;;;;;;;8.57;4.53;;;26.60;99.90;;;;;;12418206;28;20062;-40
2023/06/09 12:35:53;;;;;;;7.28;4.43;;;26.10;99.90;;;;;;12414052;28;20041;-40
2023/06/09 12:41:55;;;;;;;6.55;4.05;;;26.50;99.90;;;;;;12407704;28;20050;-40
2023/06/09 12:48:04;;;;;;;7.97;4.97;;;26.80;99.90;;;;;;12413551;28;20058;-41
2023/06/09 12:54:07;;;;;;;5.28;4.25;;;26.60;99.90;;;;;;12429370;28;20046;-41
2023/06/09 13:00:09;;;;;;;6.25;3.90;;;26.70;99.90;;;;;;12405579;28;20054;-41
2023/06/09 13:06:24;;;;;;;8.15;4.80;;;26.40;99.90;;;;;;12402892;28;20053;-40
2023/06/09 13:12:26;;;;;;;10.43;4.30;;;26.30;99.90;;;;;;12405325;28;20069;-40
2023/06/09 13:18:28;;;;;;;7.13;4.63;;;26.10;99.90;;;;;;12414834;28;20053;-40
2023/06/09 13:24:29;;;;;;;10.40;4.30;;;25.90;99.90;;;;;;12427440;28;20045;-39
2023/06/09 13:30:32;;;;;;;9.40;4.47;;;25.90;99.90;;;;;;12423975;28;20050;-40
2023/06/09 13:36:34;;;;;;;8.20;4.13;;;25.90;99.90;;;;;;12437498;28;20081;-41
2023/06/09 13:42:37;;;;;;;8.70;4.40;;;25.90;99.90;;;;;;12430350;28;20049;-41
2023/06/09 13:48:39;;;;;;;;;;;26.00;99.90;;;;;;12422033;28;20042;-41
2023/06/09 13:54:41;;;;;;;7.80;4.23;;;25.80;99.90;;;;;;12411764;28;19968;-40
2023/06/09 14:00:43;;;;;;;7.10;3.90;;;26.00;99.90;;;;;;12411442;28;20046;-39
2023/06/09 14:06:45;;;;;;;6.67;4.63;;;26.00;99.90;;;;;;12413584;28;20057;-43
2023/06/09 14:12:47;;;;;;;7.60;3.88;;;25.80;99.90;;;;;;12413794;28;20070;-41
2023/06/09 14:18:52;;;;;;;9.38;3.90;;;25.80;99.90;;;;;;12408405;28;20277;-40
2023/06/09 14:24:55;;;;;;;6.30;3.13;;;25.90;99.90;;;;;;12414459;28;20536;-40
2023/06/09 14:30:57;;;;;;;6.53;3.80;;;26.10;99.90;;;;;;12409954;28;20082;-40
2023/06/09 14:36:59;;;;;;;7.78;4.00;;;26.00;99.90;;;;;;12405642;28;20045;-39
2023/06/09 14:43:03;;;;;;;5.20;3.70;;;26.20;99.90;;;;;;12351989;28;20056;-40
2023/06/09 14:49:05;;;;;;;5.55;3.65;;;25.90;99.90;;;;;;12337788;28;20057;-40
2023/06/09 14:55:08;;;;;;;7.83;3.47;;;26.20;99.90;;;;;;12372388;28;20046;-40
2023/06/09 15:01:10;;;;;;;;;;;25.90;99.90;;;;;;12370370;28;20098;-40
2023/06/09 15:07:14;;;;;;;5.38;3.10;;;25.90;99.90;;;;;;12371993;28;20286;-41
2023/06/09 15:13:17;;;;;;;5.63;3.70;;;26.10;99.90;;;;;;12354999;28;20042;-41
2023/06/09 15:19:19;;;;;;;7.85;3.83;;;26.00;99.90;;;;;;12372818;28;20407;-40
2023/06/09 15:25:30;;;;;;;7.33;3.63;;;26.00;99.90;;;;;;12367654;28;20423;-41
2023/06/09 15:31:32;;;;;;;6.45;3.70;;;25.90;99.90;;;;;;12373113;28;20072;-40
2023/06/09 15:37:33;;;;;;;5.00;3.17;;;25.80;99.90;;;;;;12353545;28;20134;-39
2023/06/09 15:43:37;;;;;;;5.10;3.43;;;25.70;99.90;;;;;;12363644;28;20096;-40
2023/06/09 15:49:39;;;;;;;5.70;3.40;;;25.70;99.90;;;;;;12358577;28;20055;-40
2023/06/09 15:55:41;;;;;;;5.73;3.53;;;25.50;99.90;;;;;;12358176;28;20043;-40
2023/06/09 16:01:44;;;;;;;6.53;3.67;;;25.60;99.90;;;;;;12341885;28;20046;-41
2023/06/09 16:07:46;;;;;;;5.20;3.20;;;25.60;99.90;;;;;;12356147;28;20562;-39
2023/06/09 16:13:48;;;;;;;4.53;3.20;;;25.50;99.90;;;;;;12364411;28;20046;-41
2023/06/09 16:19:50;;;;;;;7.03;3.77;;;25.50;99.90;;;;;;12366386;28;20070;-40
2023/06/09 16:25:55;;;;;;;4.93;3.40;;;25.60;99.90;;;;;;12367478;28;20058;-41
2023/06/09 16:31:57;;;;;;;7.10;3.42;;;25.50;99.90;;;;;;12360491;28;20433;-40
2023/06/09 16:37:59;;;;;;;4.90;3.33;;;25.50;99.90;;;;;;12365259;28;20760;-41
2023/06/09 16:44:01;;;;;;;7.93;3.80;;;25.50;99.90;;;;;;12378708;28;20103;-40
2023/06/09 16:50:04;;;;;;;6.50;3.40;;;25.50;99.90;;;;;;12374301;28;20062;-40
2023/06/09 16:56:06;;;;;;;7.28;4.07;;;25.50;99.90;;;;;;12365266;28;20130;-40
2023/06/09 17:02:08;;;;;;;7.32;4.30;;;25.40;99.90;;;;;;12361415;28;20117;-41
2023/06/09 17:08:10;;;;;;;9.07;4.17;;;25.30;99.90;;;;;;12364944;28;20050;-40
2023/06/09 17:14:13;;;;;;;8.33;4.17;;;25.20;99.90;;;;;;12374896;28;20054;-40
2023/06/09 17:20:15;;;;;;;8.00;4.10;;;25.10;99.90;;;;;;12373713;28;20545;-40
2023/06/09 17:26:17;;;;;;;7.60;4.45;;;25.10;99.90;;;;;;12381076;28;20043;-41
2023/06/09 17:32:19;;;;;;;6.13;4.00;;;25.00;99.90;;;;;;12350190;28;20066;-41
2023/06/09 17:38:22;;;;;;;6.50;3.40;;;25.00;99.90;;;;;;12370631;28;20081;-40
2023/06/09 17:44:24;;;;;;;8.65;4.22;;;25.00;99.90;;;;;;12366821;28;20142;-40
2023/06/09 17:50:27;;;;;;;9.57;3.87;;;25.10;99.90;;;;;;12381749;28;20050;-40
2023/06/09 17:56:29;;;;;;;7.40;3.97;;;25.00;99.90;;;;;;12361729;28;20285;-40
2023/06/09 18:02:32;;;;;;;6.38;3.42;;;25.00;99.90;;;;;;12367289;28;20046;-40
2023/06/09 18:08:34;;;;;;;7.57;4.20;;;25.00;99.90;;;;;;12355062;28;20054;-41
2023/06/09 18:14:36;;;;;;;6.03;4.00;;;24.80;99.90;;;;;;12356612;28;20082;-40
2023/06/09 18:20:38;;;;;;;4.80;3.80;;;24.60;99.90;;;;;;12373958;28;20065;-40
2023/06/09 18:26:41;;;;;;;6.93;4.07;;;24.50;99.90;;;;;;12367244;28;20096;-39
2023/06/09 18:32:43;;;;;;;7.00;4.22;;;24.30;99.90;;;;;;12378035;28;20043;-40
2023/06/09 18:38:45;;;;;;;6.43;4.60;;;24.20;99.90;;;;;;12370422;28;20483;-40
2023/06/09 18:44:47;;;;;;;10.10;4.73;;;24.00;99.90;;;;;;12365106;28;20051;-40
2023/06/09 18:50:49;;;;;;;5.67;4.43;;;23.90;99.90;;;;;;12365689;28;20054;-40
2023/06/09 18:56:51;;;;;;;7.63;4.80;;;23.90;99.90;;;;;;12361207;28;20050;-39
2023/06/09 19:02:53;;;;;;;5.63;4.10;;;23.70;99.90;;;;;;12392709;28;20055;-41
2023/06/09 19:08:55;;;;;;;8.87;4.30;;;23.60;99.90;;;;;;12369537;28;20054;-40
2023/06/09 19:14:58;;;;;;;10.88;4.78;;;23.50;99.90;;;;;;12364844;28;20073;-39
2023/06/09 19:21:03;;;;;;;12.20;4.30;;;23.40;99.90;;;;;;12379374;28;20062;-39
2023/06/09 19:27:05;;;;;;;7.80;4.75;;;23.30;99.90;;;;;;12372840;28;20297;-39
2023/06/09 19:33:07;;;;;;;8.30;4.43;;;23.10;99.90;;;;;;12366474;28;20061;-39
2023/06/09 19:39:10;;;;;;;6.17;4.40;;;23.00;99.90;;;;;;12376859;28;20070;-39
2023/06/09 19:45:12;;;;;;;5.33;4.27;;;22.70;99.90;;;;;;12342433;28;20582;-40
2023/06/09 19:51:15;;;;;;;8.30;4.57;;;22.80;99.90;;;;;;12367130;28;20047;-41
2023/06/09 19:57:17;;;;;;;7.15;4.82;;;22.60;99.90;;;;;;12359178;28;20034;-40
2023/06/09 20:03:19;;;;;;;7.25;4.65;;;22.40;99.90;;;;;;12355541;28;20050;-40
2023/06/09 20:09:23;;;;;;;7.10;4.40;;;22.30;99.90;;;;;;12369808;28;20116;-40
2023/06/09 20:15:27;;;;;;;7.57;5.18;;;22.20;99.90;;;;;;12367348;28;20053;-40
2023/06/09 20:21:29;;;;;;;;;;;22.00;99.90;;;;;;12372938;28;20055;-39
2023/06/09 20:27:30;;;;;;;7.40;4.57;;;22.00;99.90;;;;;;12365269;28;19968;-39
2023/06/09 20:33:34;;;;;;;6.38;4.47;;;22.00;99.90;;;;;;12364166;28;20046;-39
2023/06/09 20:39:36;;;;;;;;;;;21.90;99.90;;;;;;12378197;28;20137;-40
2023/06/09 20:45:40;;;;;;;10.68;4.55;;;21.80;99.90;;;;;;12354696;28;19995;-39
2023/06/09 20:51:42;;;;;;;8.45;4.40;;;21.70;99.90;;;;;;12364572;28;20042;-41
2023/06/09 20:57:44;;;;;;;6.53;5.00;;;21.60;99.90;;;;;;12351156;28;20057;-40
2023/06/09 21:03:47;;;;;;;8.45;4.93;;;21.40;99.90;;;;;;12355732;28;20046;-39
2023/06/09 21:09:49;;;;;;;8.35;5.05;;;21.10;99.90;;;;;;12374160;28;20085;-39
2023/06/09 21:15:52;;;;;;;6.47;4.55;;;20.90;99.90;;;;;;12351225;28;20162;-39
2023/06/09 21:21:54;;;;;;;8.07;4.97;;;20.90;99.90;;;;;;12374568;28;20051;-39
2023/06/09 21:27:59;;;;;;;8.25;4.75;;;20.70;99.90;;;;;;12360590;28;20063;-39
2023/06/09 21:34:06;;;;;;;6.63;4.57;;;20.50;99.90;;;;;;12359171;28;20047;-39
2023/06/09 21:40:08;;;;;;;9.15;4.65;;;20.40;99.90;;;;;;12373199;28;20492;-39
2023/06/09 21:46:10;;;;;;;8.30;4.97;;;20.30;99.90;;;;;;12355607;28;20055;-40
2023/06/09 21:52:13;;;;;;;7.32;4.13;;;20.20;99.90;;;;;;12379989;28;20049;-39
2023/06/09 21:58:15;;;;;;;6.63;4.30;;;20.30;99.90;;;;;;12386117;28;20046;-39
2023/06/09 22:04:17;;;;;;;6.50;4.10;;;20.00;99.90;;;;;;12359878;28;20053;-39
2023/06/09 22:10:19;;;;;;;9.25;4.95;;;19.80;99.90;;;;;;12380448;28;20596;-40
2023/06/09 22:16:21;;;;;;;8.85;4.53;;;19.60;99.90;;;;;;12383374;28;20047;-39
2023/06/09 22:22:23;;;;;;;7.93;4.20;;;19.60;99.90;;;;;;12377924;28;20388;-38
2023/06/09 22:28:25;;;;;;;10.20;4.50;;;19.40;99.90;;;;;;12377782;28;20069;-39
2023/06/09 22:34:27;;;;;;;9.70;4.68;;;19.20;99.90;;;;;;12379047;28;20043;-38
2023/06/09 22:40:30;;;;;;;7.75;4.70;;;19.10;99.90;;;;;;12380368;28;20495;-39
2023/06/09 22:46:31;;;;;;;7.28;4.70;;;19.10;99.90;;;;;;12381717;28;21413;-39
2023/06/09 22:52:34;;;;;;;8.63;4.85;;;19.00;99.90;;;;;;12367946;28;20073;-38
2023/06/09 22:58:36;;;;;;;8.90;4.75;;;18.90;99.90;;;;;;12394163;28;20073;-40
2023/06/09 23:04:37;;;;;;;12.18;4.85;;;18.90;99.90;;;;;;12375493;28;20066;-38
2023/06/09 23:10:40;;;;;;;9.35;4.88;;;18.90;99.90;;;;;;12358181;28;20054;-39
2023/06/09 23:16:42;;;;;;;9.27;4.80;;;18.90;99.90;;;;;;12378091;28;20410;-38
2023/06/09 23:22:45;;;;;;;8.07;4.60;;;18.80;99.90;;;;;;12381967;28;20057;-40
2023/06/09 23:28:47;;;;;;;10.48;4.97;;;18.50;99.90;;;;;;12376778;28;20062;-39
2023/06/09 23:34:49;;;;;;;9.95;4.45;;;18.10;99.90;;;;;;12367121;28;20049;-40
2023/06/09 23:40:52;;;;;;;9.55;4.93;;;18.10;99.90;;;;;;12373560;28;20053;-39
2023/06/09 23:46:55;;;;;;;8.70;4.82;;;17.90;99.90;;;;;;12382343;28;20085;-38
2023/06/09 23:52:57;;;;;;;8.90;4.90;;;17.80;99.90;;;;;;12377774;28;20065;-38
2023/06/09 23:58:59;;;;;;;8.85;4.75;;;17.80;99.90;;;;;;12370043;28;20042;-40
